DGAA/ACC METAR and TAF weather

Enter ICAO airport designator
Station Type Date Time Source
DGAA METAR 2021/09/23 18:00 UTC NOAA

DGAA 231800Z 19010KT 9999 FEW030CB 27/25 Q1011 NOSIG


Station Type Date Time Source
DGAA Decoded METAR 2021/09/23 18:00 UTC NOAA

Accra, Ghana (DGAA) 05-36N 000-10W 69M
Sep 23, 2021 - 02:00 PM EDT / 2021.09.23 1800 UTC
Wind: from the S (190 degrees) at 12 MPH (10 KT):0
Visibility: greater than 7 mile(s):0
Sky conditions: mostly clear
Weather: Cumulonimbus clouds observed
Temperature: 80 F (27 C)
Dew Point: 77 F (25 C)
Relative Humidity: 88%
Pressure (altimeter): 29.85 in. Hg (1011 hPa)
ob: DGAA 231800Z 19010KT 9999 FEW030CB 27/25 Q1011 NOSIG
cycle: 18

Station Type Date Time Source
DGAA TAF 2021/09/23 18:27 UTC NOAA

TAF DGAA 231700Z 2318/2424 21010KT 9999 BKN016 PROB30
TEMPO 2318/2321 TS FEW030CB
BECMG 2323/2401 27010KT
BECMG 2412/2414 20012KT

Example: see airport list